createdAt,value
2023-03-23T15:58:15.668Z,99239.50
2023-03-23T16:00:43.705Z,99236.31
2023-03-23T16:03:14.534Z,99241.25
2023-03-23T16:05:41.734Z,99246.22
2023-03-23T16:08:11.720Z,99242.19
2023-03-23T16:10:38.640Z,99240.16
2023-03-23T16:13:06.205Z,99246.22
2023-03-23T16:15:32.955Z,99254.53
2023-03-23T16:17:59.719Z,99244.13
2023-03-23T16:20:29.168Z,99265.75
2023-03-23T16:22:56.206Z,99265.09
2023-03-23T16:25:22.888Z,99275.91
2023-03-23T16:27:52.274Z,99277.50
2023-03-23T16:30:25.427Z,99263.50
2023-03-23T16:32:54.191Z,99262.41
2023-03-23T16:35:22.463Z,99257.56
2023-03-23T16:37:51.689Z,99257.63
2023-03-23T16:40:38.191Z,99260.00
2023-03-23T16:43:08.615Z,99265.38
2023-03-23T16:45:37.737Z,99273.06
2023-03-23T16:48:05.442Z,99272.72
2023-03-23T16:50:32.852Z,99269.28
2023-03-23T16:52:59.657Z,99265.13
2023-03-23T16:55:27.193Z,99270.44
2023-03-23T16:58:05.446Z,99273.44
2023-03-23T17:00:41.423Z,99268.47
2023-03-23T17:03:08.759Z,99263.44
2023-03-23T17:05:36.352Z,99248.94
2023-03-23T17:08:03.892Z,99274.38
2023-03-23T17:10:31.347Z,99279.97
2023-03-23T17:12:58.442Z,99284.06
2023-03-23T17:15:25.834Z,99283.59
2023-03-23T17:17:53.817Z,99275.47
2023-03-23T17:20:21.173Z,99277.25
2023-03-23T17:22:48.135Z,99277.50
2023-03-23T17:25:15.264Z,99283.03
2023-03-23T17:27:42.727Z,99279.84
2023-03-23T17:30:10.940Z,99289.22
2023-03-23T17:32:38.335Z,99286.00
2023-03-23T17:35:07.124Z,99288.47
2023-03-23T17:37:34.469Z,99294.44
2023-03-23T17:40:01.321Z,99297.28
2023-03-23T17:42:29.605Z,99297.16
2023-03-23T17:44:56.448Z,99304.44
2023-03-23T17:47:24.146Z,99299.34
2023-03-23T17:49:51.295Z,99300.47
2023-03-23T17:52:18.029Z,99296.66
2023-03-23T17:54:44.865Z,99288.97
2023-03-23T17:57:13.610Z,99298.75
2023-03-23T17:59:40.413Z,99302.00
2023-03-23T18:02:07.478Z,99298.00
2023-03-23T18:04:34.369Z,99308.03
2023-03-23T18:07:01.087Z,99308.59
2023-03-23T18:09:28.216Z,99313.00
2023-03-23T18:11:56.564Z,99320.44
2023-03-23T18:14:23.339Z,99315.75
2023-03-23T18:16:50.256Z,99327.78
2023-03-23T18:19:17.464Z,99328.56
2023-03-23T18:21:45.987Z,99318.69
2023-03-23T18:24:13.333Z,99309.53
2023-03-23T18:26:40.770Z,99322.22
2023-03-23T18:29:07.561Z,99327.72
2023-03-23T18:31:39.846Z,99337.28
2023-03-23T18:34:07.142Z,99326.78
2023-03-23T18:36:34.076Z,99328.31
2023-03-23T18:39:00.873Z,99328.81
2023-03-23T18:41:27.600Z,99330.25
2023-03-23T18:43:56.288Z,99327.97
2023-03-23T18:46:24.235Z,99326.78
2023-03-23T18:48:51.112Z,99341.91
2023-03-23T18:51:17.973Z,99329.03
2023-03-23T18:53:44.709Z,99326.03
2023-03-23T18:56:13.619Z,99324.84
2023-03-23T18:58:40.359Z,99340.31
2023-03-23T19:01:10.463Z,99332.38
2023-03-23T19:03:37.847Z,99331.06
2023-03-23T19:06:05.976Z,99325.63
2023-03-23T19:08:34.844Z,99329.97
2023-03-23T19:11:04.152Z,99322.31
2023-03-23T19:13:34.118Z,99328.31
2023-03-23T19:16:01.036Z,99314.66
2023-03-23T19:18:27.881Z,99318.72
2023-03-23T19:21:13.481Z,99320.47
2023-03-23T19:23:41.790Z,99319.69
2023-03-23T19:26:08.492Z,99315.88
2023-03-23T19:31:05.427Z,99326.38
2023-03-23T19:33:32.160Z,99325.25
2023-03-23T19:36:09.347Z,99324.84
2023-03-23T19:38:39.635Z,99333.41
2023-03-23T19:41:06.827Z,99328.72
2023-03-23T19:43:33.861Z,99336.91
2023-03-23T19:46:00.925Z,99339.84
2023-03-23T19:48:28.847Z,99342.34
2023-03-23T19:50:56.406Z,99336.81
2023-03-23T19:53:24.222Z,99340.91
2023-03-23T19:55:51.607Z,99345.34
2023-03-23T19:58:18.714Z,99344.34
2023-03-23T20:00:46.133Z,99339.25
2023-03-23T20:03:13.305Z,99342.06
2023-03-23T20:05:40.862Z,99343.69
2023-03-23T20:08:09.835Z,99343.19
2023-03-23T20:10:37.480Z,99347.03
2023-03-23T20:13:05.004Z,99340.88
2023-03-23T20:15:32.044Z,99341.38
2023-03-23T20:17:59.049Z,99348.00
2023-03-23T20:20:26.151Z,99343.25
2023-03-23T20:22:55.193Z,99343.84
2023-03-23T20:25:23.282Z,99345.13
2023-03-23T20:27:50.049Z,99340.41
2023-03-23T20:30:18.786Z,99349.75
2023-03-23T20:32:46.502Z,99345.84
2023-03-23T20:35:14.671Z,99350.50
2023-03-23T20:37:42.151Z,99365.53
2023-03-23T20:40:12.149Z,99350.31
2023-03-23T20:42:39.182Z,99351.41
2023-03-23T20:45:07.298Z,99344.09
2023-03-23T20:47:34.267Z,99341.16
2023-03-23T20:50:02.044Z,99345.81
2023-03-23T20:52:28.942Z,99353.03
2023-03-23T20:54:56.036Z,99354.03
2023-03-23T20:57:23.236Z,99343.84
2023-03-23T20:59:50.946Z,99357.34
2023-03-23T21:02:18.770Z,99350.22
2023-03-23T21:04:45.600Z,99344.00
2023-03-23T21:07:13.178Z,99343.63
2023-03-23T21:09:41.457Z,99334.88
2023-03-23T21:12:09.925Z,99331.81
2023-03-23T21:14:38.726Z,99325.22
2023-03-23T21:17:06.583Z,99328.53
2023-03-23T21:19:33.868Z,99321.19
2023-03-23T21:22:00.994Z,99327.22
2023-03-23T21:24:29.508Z,99337.41
2023-03-23T21:26:59.735Z,99337.75
2023-03-23T21:29:27.357Z,99341.91
2023-03-23T21:32:07.704Z,99348.16
2023-03-23T21:34:36.736Z,99350.47
2023-03-23T21:37:03.656Z,99336.91
2023-03-23T21:39:30.442Z,99339.94
2023-03-23T21:41:59.213Z,99337.63
2023-03-23T21:44:25.964Z,99334.34
2023-03-23T21:46:54.584Z,99331.06
2023-03-23T21:49:21.562Z,99329.97
2023-03-23T21:51:49.488Z,99330.28
2023-03-23T21:54:16.195Z,99339.94
2023-03-23T21:56:43.043Z,99342.78
2023-03-23T21:59:09.913Z,99332.06
2023-03-23T22:01:37.337Z,99329.66
2023-03-23T22:04:05.216Z,99326.53
2023-03-23T22:06:34.419Z,99337.56
2023-03-23T22:09:02.406Z,99338.88
2023-03-23T22:11:31.579Z,99333.63
2023-03-23T22:13:58.947Z,99342.50
2023-03-23T22:16:26.195Z,99344.72
2023-03-23T22:18:54.128Z,99338.22
2023-03-23T22:21:22.192Z,99339.97
2023-03-23T22:23:49.432Z,99342.50
2023-03-23T22:26:16.794Z,99339.44
2023-03-23T22:28:44.237Z,99344.38
2023-03-23T22:31:18.518Z,99336.72
2023-03-23T22:33:46.641Z,99343.50
2023-03-23T22:36:14.170Z,99340.44
2023-03-23T22:38:43.754Z,99345.13
2023-03-23T22:41:16.337Z,99350.06
2023-03-23T22:43:43.200Z,99348.09
2023-03-23T22:46:09.962Z,99345.38
2023-03-23T22:48:36.912Z,99347.66
2023-03-23T22:51:04.370Z,99343.94
2023-03-23T22:53:31.238Z,99345.69
2023-03-23T22:55:58.011Z,99353.56
2023-03-23T22:58:26.306Z,99349.84
2023-03-23T23:01:17.322Z,99350.28
2023-03-23T23:03:44.806Z,99357.19
2023-03-23T23:06:12.970Z,99357.28
2023-03-23T23:08:41.282Z,99352.03
2023-03-23T23:11:11.066Z,99353.16
2023-03-23T23:13:39.435Z,99349.19
2023-03-23T23:16:07.440Z,99348.75
2023-03-23T23:18:35.389Z,99354.66
2023-03-23T23:21:09.530Z,99346.53
2023-03-23T23:23:36.476Z,99354.19
2023-03-23T23:26:03.592Z,99348.84
2023-03-23T23:28:31.097Z,99351.56
2023-03-23T23:30:58.242Z,99356.69
2023-03-23T23:33:25.491Z,99350.66
2023-03-23T23:35:52.267Z,99351.13
2023-03-23T23:38:19.081Z,99354.38
2023-03-23T23:40:47.269Z,99351.31
2023-03-23T23:43:15.689Z,99351.97
2023-03-23T23:45:42.668Z,99340.59
2023-03-23T23:48:09.709Z,99332.47
2023-03-23T23:50:36.642Z,99337.94
2023-03-23T23:53:04.867Z,99336.25
2023-03-23T23:55:31.859Z,99336.16
2023-03-23T23:57:58.600Z,99346.53
